createdAt,value
2022-11-04T00:01:28.167Z,85.79
2022-11-04T00:03:56.124Z,85.70
2022-11-04T00:06:24.189Z,84.72
2022-11-04T00:08:54.992Z,84.73
2022-11-04T00:11:40.780Z,84.29
2022-11-04T00:14:10.193Z,84.12
2022-11-04T00:16:56.003Z,84.33
2022-11-04T00:19:24.144Z,84.05
2022-11-04T00:22:09.637Z,84.23
2022-11-04T00:24:56.152Z,83.34
2022-11-04T00:27:41.631Z,84.24
2022-11-04T00:30:11.475Z,83.83
2022-11-04T00:32:56.553Z,84.90
2022-11-04T00:35:24.456Z,85.06
2022-11-04T00:37:52.252Z,84.70
2022-11-04T00:40:21.375Z,85.80
2022-11-04T00:42:49.105Z,85.38
2022-11-04T00:45:16.978Z,85.88
2022-11-04T00:47:44.748Z,85.98
2022-11-04T00:50:12.563Z,84.69
2022-11-04T00:52:40.324Z,85.67
2022-11-04T00:55:09.029Z,84.84
2022-11-04T00:57:38.093Z,83.94
2022-11-04T01:00:07.183Z,85.69
2022-11-04T01:02:35.095Z,85.48
2022-11-04T01:05:02.945Z,85.24
2022-11-04T01:07:30.692Z,84.96
2022-11-04T01:09:58.463Z,85.02
2022-11-04T01:12:26.201Z,85.55
2022-11-04T01:14:55.847Z,85.91
2022-11-04T01:17:23.588Z,85.19
2022-11-04T01:19:51.367Z,84.79
2022-11-04T01:22:19.118Z,85.51
2022-11-04T01:24:46.854Z,84.48
2022-11-04T01:27:14.592Z,85.27
2022-11-04T01:29:42.402Z,85.43
2022-11-04T01:32:11.507Z,84.64
2022-11-04T01:34:43.261Z,85.03
2022-11-04T01:37:11.939Z,85.10
2022-11-04T01:39:39.675Z,84.73
2022-11-04T01:42:07.563Z,85.64
2022-11-04T01:44:54.140Z,85.71
2022-11-04T01:47:27.560Z,85.02
2022-11-04T01:49:57.173Z,84.97
2022-11-04T01:52:30.743Z,84.57
2022-11-04T01:55:03.050Z,84.85
2022-11-04T01:57:35.372Z,85.17
2022-11-04T02:00:06.131Z,84.81
2022-11-04T02:02:50.446Z,85.05
2022-11-04T02:05:18.660Z,86.17
2022-11-04T02:07:50.682Z,84.98
2022-11-04T02:10:19.921Z,84.34
2022-11-04T02:12:49.566Z,85.10
2022-11-04T02:15:20.266Z,85.42
2022-11-04T02:18:14.297Z,85.36
2022-11-04T02:21:15.579Z,85.10
2022-11-04T02:24:10.287Z,85.48
2022-11-04T02:27:00.809Z,85.11
2022-11-04T02:29:40.956Z,84.82
2022-11-04T02:32:16.344Z,85.65
2022-11-04T02:34:55.718Z,84.78
2022-11-04T02:37:29.153Z,85.55
2022-11-04T02:40:07.281Z,84.49
2022-11-04T02:42:41.143Z,84.98
2022-11-04T02:45:17.758Z,84.83
2022-11-04T02:47:50.484Z,84.27
2022-11-04T02:50:24.590Z,84.39
2022-11-04T02:52:58.109Z,84.28
2022-11-04T02:55:28.774Z,83.90
2022-11-04T02:57:59.664Z,84.26
2022-11-04T03:00:30.055Z,85.01
2022-11-04T03:03:01.436Z,85.08
2022-11-04T03:05:33.242Z,83.99
2022-11-04T03:08:09.319Z,83.73
2022-11-04T03:10:39.867Z,84.58
2022-11-04T03:13:12.531Z,84.53
2022-11-04T03:15:47.483Z,84.29
2022-11-04T03:18:22.289Z,84.17
2022-11-04T03:20:51.828Z,84.85
2022-11-04T03:23:20.298Z,84.11
2022-11-04T03:25:51.226Z,84.58
2022-11-04T03:28:28.319Z,83.91
2022-11-04T03:31:03.198Z,84.21
2022-11-04T03:33:39.726Z,83.97
2022-11-04T03:36:08.841Z,84.21
2022-11-04T03:38:37.109Z,83.66
2022-11-04T03:41:18.589Z,83.60
2022-11-04T03:43:46.366Z,84.19
2022-11-04T03:46:15.614Z,84.62
2022-11-04T03:48:46.519Z,84.66
2022-11-04T03:51:14.601Z,83.99
2022-11-04T03:53:42.726Z,84.12
2022-11-04T03:56:30.840Z,84.69
2022-11-04T03:59:11.983Z,84.56
2022-11-04T04:01:50.188Z,85.78
2022-11-04T04:04:24.035Z,85.24
2022-11-04T04:06:55.216Z,84.26
2022-11-04T04:09:32.244Z,85.57
2022-11-04T04:12:06.577Z,86.33
2022-11-04T04:14:40.045Z,85.94
2022-11-04T04:17:16.575Z,84.81
2022-11-04T04:19:49.022Z,84.70
2022-11-04T04:22:21.026Z,84.38
2022-11-04T04:25:06.287Z,85.22
2022-11-04T04:27:35.300Z,84.78
2022-11-04T04:30:06.459Z,84.30
2022-11-04T04:32:39.471Z,83.74
2022-11-04T04:35:40.826Z,83.63
2022-11-04T04:38:31.810Z,83.96
2022-11-04T04:41:22.716Z,85.96
2022-11-04T04:44:08.406Z,84.70
2022-11-04T04:46:37.498Z,84.44
2022-11-04T04:49:07.554Z,85.13
2022-11-04T04:51:37.405Z,84.38
2022-11-04T04:54:05.249Z,85.81
2022-11-04T04:56:33.028Z,84.84
2022-11-04T04:59:00.799Z,85.54
2022-11-04T05:01:29.032Z,85.20
2022-11-04T05:03:56.889Z,84.87
2022-11-04T05:06:25.972Z,85.25
2022-11-04T05:08:53.744Z,84.98
2022-11-04T05:11:26.061Z,84.54
2022-11-04T05:13:55.051Z,84.39
2022-11-04T05:16:22.913Z,85.34
2022-11-04T05:18:52.596Z,85.22
2022-11-04T05:21:20.354Z,86.32
2022-11-04T05:23:49.496Z,85.92
2022-11-04T05:26:17.575Z,84.13
2022-11-04T05:28:45.343Z,83.72
2022-11-04T05:31:13.350Z,84.29
2022-11-04T05:33:41.119Z,84.15
2022-11-04T05:36:10.222Z,85.42
2022-11-04T05:38:38.295Z,83.96
2022-11-04T05:41:08.748Z,83.66
2022-11-04T05:43:36.802Z,84.51
2022-11-04T05:46:05.010Z,83.81
2022-11-04T05:48:37.785Z,83.02
2022-11-04T05:51:08.076Z,83.44
2022-11-04T05:53:35.823Z,83.41
2022-11-04T05:56:03.813Z,83.78
2022-11-04T05:58:32.892Z,83.44
2022-11-04T06:01:13.312Z,83.58
2022-11-04T06:03:41.215Z,84.53
2022-11-04T06:06:09.027Z,83.99
2022-11-04T06:08:41.068Z,84.32
2022-11-04T06:11:11.939Z,83.31
2022-11-04T06:13:41.041Z,83.26
2022-11-04T06:16:09.040Z,82.42
2022-11-04T06:18:36.801Z,82.94
2022-11-04T06:21:09.402Z,83.24
2022-11-04T06:23:37.225Z,83.11
2022-11-04T06:26:05.189Z,83.40
2022-11-04T06:28:33.210Z,83.36
2022-11-04T06:31:04.279Z,83.59
2022-11-04T06:33:36.472Z,83.63
2022-11-04T06:36:07.452Z,83.10
2022-11-04T06:38:37.300Z,83.89
2022-11-04T06:43:38.500Z,83.90
2022-11-04T06:46:08.069Z,83.53
2022-11-04T06:48:35.854Z,84.00
2022-11-04T06:51:03.635Z,83.60
2022-11-04T06:53:31.474Z,82.88
2022-11-04T06:56:06.074Z,82.60
2022-11-04T06:58:33.835Z,82.80
2022-11-04T07:01:03.914Z,82.97
2022-11-04T07:03:36.723Z,82.74
2022-11-04T07:06:07.797Z,83.66
2022-11-04T07:08:35.675Z,83.67
2022-11-04T07:11:04.624Z,83.68
2022-11-04T07:13:32.395Z,83.58
2022-11-04T07:16:00.250Z,82.92
2022-11-04T07:18:28.332Z,81.61
2022-11-04T07:20:58.222Z,78.53
2022-11-04T07:23:26.466Z,76.85
2022-11-04T07:25:55.247Z,77.68
2022-11-04T07:28:22.997Z,78.02
2022-11-04T07:30:50.735Z,78.46
2022-11-04T07:33:18.588Z,76.87
2022-11-04T07:35:46.485Z,77.93
2022-11-04T07:38:15.654Z,78.24
2022-11-04T07:40:43.405Z,79.17
2022-11-04T07:43:11.190Z,78.96
2022-11-04T07:45:39.560Z,79.92
2022-11-04T07:48:08.142Z,79.75
2022-11-04T07:50:38.938Z,79.65
2022-11-04T07:53:07.403Z,79.90
2022-11-04T07:55:43.139Z,79.89
2022-11-04T07:58:11.353Z,79.94
2022-11-04T08:00:39.148Z,80.60
2022-11-04T08:03:07.204Z,79.82
2022-11-04T08:05:35.331Z,80.45
2022-11-04T08:08:03.153Z,80.69
2022-11-04T08:10:31.014Z,81.44
2022-11-04T08:13:00.236Z,81.97
2022-11-04T08:15:29.123Z,81.02
2022-11-04T08:17:57.041Z,80.97
2022-11-04T08:20:24.866Z,80.05
2022-11-04T08:22:52.732Z,80.58
2022-11-04T08:25:20.536Z,80.28
2022-11-04T08:27:48.575Z,80.64
2022-11-04T08:30:17.752Z,80.06
2022-11-04T08:32:45.514Z,79.49
2022-11-04T08:35:13.373Z,80.79
2022-11-04T08:37:41.149Z,79.98
2022-11-04T08:40:10.201Z,80.72
2022-11-04T08:42:38.041Z,80.63
2022-11-04T08:45:06.906Z,80.73
2022-11-04T08:47:36.049Z,81.48
2022-11-04T08:50:03.908Z,82.86
2022-11-04T08:52:31.662Z,82.98
2022-11-04T08:54:59.442Z,84.39
2022-11-04T08:57:27.214Z,84.87
2022-11-04T08:59:55.730Z,85.37
2022-11-04T09:02:23.495Z,85.69
2022-11-04T09:04:52.643Z,85.62
2022-11-04T09:07:20.411Z,85.86
2022-11-04T09:09:48.206Z,84.74
2022-11-04T09:12:15.954Z,84.40
2022-11-04T09:14:43.720Z,84.62
2022-11-04T09:17:11.545Z,85.39
2022-11-04T09:19:39.312Z,85.46
2022-11-04T09:22:08.449Z,86.34
2022-11-04T09:24:36.226Z,86.41
2022-11-04T09:27:05.535Z,85.21
2022-11-04T09:29:34.293Z,84.85
2022-11-04T09:32:02.193Z,84.75
2022-11-04T09:34:30.476Z,84.13
2022-11-04T09:36:59.119Z,82.65
2022-11-04T09:39:28.452Z,81.92
2022-11-04T09:42:03.342Z,77.46
2022-11-04T09:45:00.070Z,75.68
2022-11-04T09:47:31.434Z,72.08
2022-11-04T09:50:01.253Z,72.83
2022-11-04T09:52:32.343Z,72.86
2022-11-04T09:55:07.260Z,72.98
2022-11-04T09:57:35.176Z,73.96
2022-11-04T10:00:03.651Z,74.32
2022-11-04T10:02:52.703Z,74.76
2022-11-04T10:05:40.854Z,77.28
2022-11-04T10:08:39.606Z,77.22
2022-11-04T10:11:17.141Z,77.20
2022-11-04T10:14:00.592Z,76.76
2022-11-04T10:16:49.619Z,74.55
2022-11-04T10:19:31.441Z,69.97
2022-11-04T10:22:05.237Z,69.20
2022-11-04T10:24:42.863Z,70.46
2022-11-04T10:27:18.132Z,70.64
2022-11-04T10:29:48.454Z,70.18
2022-11-04T10:32:22.528Z,71.08
2022-11-04T10:34:57.238Z,71.40
2022-11-04T10:37:27.023Z,73.08
2022-11-04T10:40:05.671Z,73.22
2022-11-04T10:42:34.899Z,74.44
2022-11-04T10:45:02.639Z,75.05
2022-11-04T10:47:40.671Z,76.00
2022-11-04T10:50:29.034Z,76.72
2022-11-04T10:53:10.221Z,76.99
2022-11-04T10:55:43.727Z,75.90
2022-11-04T10:58:19.336Z,76.51
2022-11-04T11:00:47.150Z,75.31
2022-11-04T11:03:30.466Z,76.39
2022-11-04T11:06:23.612Z,75.74
2022-11-04T11:08:52.884Z,76.54
2022-11-04T11:11:36.298Z,77.93
2022-11-04T11:14:05.496Z,78.14
2022-11-04T11:16:33.133Z,78.99
2022-11-04T11:19:15.837Z,80.42
2022-11-04T11:21:45.323Z,80.33
2022-11-04T11:24:20.403Z,80.06
2022-11-04T11:26:50.119Z,79.77
2022-11-04T11:29:24.714Z,79.64
2022-11-04T11:31:53.982Z,79.55
2022-11-04T11:34:23.603Z,79.62
2022-11-04T11:36:51.649Z,80.05
2022-11-04T11:39:22.023Z,79.55
2022-11-04T11:41:53.659Z,79.17
2022-11-04T11:44:28.579Z,79.11
2022-11-04T11:46:58.380Z,79.29
2022-11-04T11:49:29.105Z,79.50
2022-11-04T11:51:57.763Z,79.38
2022-11-04T11:54:33.371Z,78.61
2022-11-04T11:57:14.757Z,78.24
2022-11-04T12:02:48.682Z,72.56
2022-11-04T12:11:15.132Z,74.30
2022-11-04T12:13:48.357Z,74.11
2022-11-04T12:16:38.434Z,74.87
2022-11-04T12:19:22.389Z,74.20
2022-11-04T12:22:00.505Z,73.10
2022-11-04T12:24:35.837Z,73.68
2022-11-04T12:27:12.912Z,73.28
2022-11-04T12:29:53.892Z,74.56
2022-11-04T12:32:31.024Z,74.76
2022-11-04T12:35:12.024Z,75.46
2022-11-04T12:37:55.657Z,77.22
2022-11-04T12:40:28.633Z,79.17
2022-11-04T12:43:08.212Z,79.87
2022-11-04T12:45:46.546Z,80.81
2022-11-04T12:48:32.023Z,81.56
2022-11-04T12:51:10.662Z,82.35
2022-11-04T12:53:56.989Z,82.40
2022-11-04T12:56:37.441Z,82.30
2022-11-04T12:59:30.378Z,81.69
2022-11-04T13:02:02.788Z,81.39
2022-11-04T13:04:38.936Z,81.77
2022-11-04T13:07:13.006Z,82.01
2022-11-04T13:09:44.714Z,82.66
2022-11-04T13:12:17.305Z,82.03
2022-11-04T13:14:49.228Z,81.17
2022-11-04T13:17:21.090Z,81.59
2022-11-04T13:19:52.771Z,82.41
2022-11-04T13:22:25.280Z,82.80
2022-11-04T13:24:57.631Z,82.75
2022-11-04T13:27:28.032Z,83.44
2022-11-04T13:30:06.116Z,83.01
2022-11-04T13:32:39.776Z,83.04
2022-11-04T13:35:17.789Z,82.71
2022-11-04T13:37:53.420Z,81.96
2022-11-04T13:40:25.685Z,81.86
2022-11-04T13:43:22.964Z,81.88
2022-11-04T13:45:53.415Z,82.08
2022-11-04T13:48:24.398Z,82.32
2022-11-04T13:51:02.340Z,82.65
2022-11-04T13:53:45.275Z,81.49
2022-11-04T13:56:34.114Z,81.07
2022-11-04T13:59:08.787Z,80.65
2022-11-04T14:01:36.846Z,80.93
2022-11-04T14:04:25.195Z,81.08
2022-11-04T14:06:57.450Z,81.01
2022-11-04T14:09:55.127Z,81.69
2022-11-04T14:12:35.416Z,82.24
2022-11-04T14:15:16.239Z,81.65
2022-11-04T14:18:03.354Z,81.97
2022-11-04T14:20:34.470Z,82.09
2022-11-04T14:23:05.847Z,82.28
2022-11-04T14:25:37.627Z,82.22
2022-11-04T14:28:21.085Z,82.92
2022-11-04T14:30:52.469Z,83.17
2022-11-04T14:33:42.168Z,83.48
2022-11-04T14:36:26.197Z,83.26
2022-11-04T14:38:58.007Z,83.60
2022-11-04T14:41:46.683Z,84.03
2022-11-04T14:44:21.394Z,84.05
2022-11-04T14:46:53.020Z,84.03
2022-11-04T14:49:34.472Z,84.28
2022-11-04T14:52:02.980Z,84.50
2022-11-04T14:54:34.866Z,84.67
2022-11-04T14:57:15.023Z,84.60
2022-11-04T14:59:42.833Z,84.56
2022-11-04T15:02:17.178Z,84.75
2022-11-04T15:04:51.804Z,84.91
2022-11-04T15:07:33.875Z,84.91
2022-11-04T15:10:05.411Z,85.14
2022-11-04T15:12:50.458Z,85.19
2022-11-04T15:15:28.301Z,85.25
2022-11-04T15:18:00.656Z,85.43
2022-11-04T15:20:31.510Z,85.26
2022-11-04T15:23:02.589Z,85.15
2022-11-04T15:25:32.693Z,85.32
2022-11-04T15:28:00.831Z,85.26
2022-11-04T15:30:30.907Z,85.32
2022-11-04T15:33:00.901Z,85.58
2022-11-04T15:35:30.885Z,85.55
2022-11-04T15:38:01.220Z,85.60
2022-11-04T15:40:32.108Z,85.66
2022-11-04T15:42:59.626Z,86.17
2022-11-04T15:45:31.144Z,86.17
2022-11-04T15:48:30.311Z,86.19
2022-11-04T15:51:05.937Z,86.31
2022-11-04T15:53:35.317Z,86.31
2022-11-04T15:56:04.432Z,86.68
2022-11-04T15:58:32.363Z,86.71
2022-11-04T16:01:00.239Z,86.86
2022-11-04T16:03:28.173Z,87.26
2022-11-04T16:06:04.478Z,87.32
2022-11-04T16:08:33.754Z,87.15
2022-11-04T16:11:16.179Z,87.13
2022-11-04T16:13:44.973Z,87.11
2022-11-04T16:16:22.758Z,87.34
2022-11-04T16:18:53.805Z,86.95
2022-11-04T16:21:26.168Z,87.28
2022-11-04T16:23:58.093Z,87.23
2022-11-04T16:26:29.964Z,87.58
2022-11-04T16:29:00.162Z,87.97
2022-11-04T16:31:33.125Z,88.08
2022-11-04T16:34:01.073Z,87.75
2022-11-04T16:36:35.088Z,87.85
2022-11-04T16:39:08.446Z,87.73
2022-11-04T16:41:39.482Z,88.27
2022-11-04T16:44:16.788Z,88.49
2022-11-04T16:46:45.429Z,88.22
2022-11-04T16:49:16.200Z,88.08
2022-11-04T16:51:44.375Z,88.25
2022-11-04T16:54:12.167Z,88.24
2022-11-04T16:56:41.307Z,88.10
2022-11-04T16:59:11.534Z,87.93
2022-11-04T17:01:40.085Z,87.61
2022-11-04T17:04:08.284Z,87.67
2022-11-04T17:06:36.358Z,87.44
2022-11-04T17:09:04.298Z,87.49
2022-11-04T17:11:32.017Z,87.86
2022-11-04T17:14:01.104Z,87.82
2022-11-04T17:16:30.066Z,87.96
2022-11-04T17:18:57.831Z,88.20
2022-11-04T17:21:26.253Z,88.32
2022-11-04T17:23:56.150Z,88.00
2022-11-04T17:26:23.957Z,88.28
2022-11-04T17:28:51.701Z,87.98
2022-11-04T17:31:21.946Z,88.22
2022-11-04T17:33:49.704Z,88.49
2022-11-04T17:36:19.967Z,88.59
2022-11-04T17:38:47.894Z,88.89
2022-11-04T17:41:33.023Z,88.94
2022-11-04T17:44:00.871Z,88.75
2022-11-04T17:46:38.096Z,88.67
2022-11-04T17:49:11.042Z,88.80
2022-11-04T17:51:40.263Z,88.78
2022-11-04T17:54:08.707Z,88.77
2022-11-04T17:56:36.782Z,88.94
2022-11-04T17:59:05.180Z,88.97
2022-11-04T18:01:36.413Z,88.58
2022-11-04T18:04:05.019Z,88.89
2022-11-04T18:06:34.736Z,89.37
2022-11-04T18:09:03.363Z,89.44
2022-11-04T18:11:48.983Z,89.48
2022-11-04T18:14:18.089Z,89.76
2022-11-04T18:16:48.902Z,89.86
2022-11-04T18:19:18.158Z,89.76
2022-11-04T18:21:46.522Z,89.92
2022-11-04T18:24:14.945Z,89.53
2022-11-04T18:26:43.179Z,89.74
2022-11-04T18:29:11.492Z,90.24
2022-11-04T18:31:44.642Z,90.31
2022-11-04T18:34:20.229Z,90.61
2022-11-04T18:36:49.259Z,90.69
2022-11-04T18:39:19.343Z,90.89
2022-11-04T18:41:47.670Z,90.93
2022-11-04T18:44:17.155Z,90.98
2022-11-04T18:46:45.570Z,91.28
2022-11-04T18:49:14.152Z,91.24
2022-11-04T18:51:43.768Z,91.42
2022-11-04T18:54:12.593Z,91.46
2022-11-04T18:56:40.851Z,91.41
2022-11-04T18:59:10.333Z,91.30
2022-11-04T19:01:38.801Z,91.12
2022-11-04T19:04:07.075Z,91.19
2022-11-04T19:06:40.076Z,91.27
2022-11-04T19:12:13.763Z,91.41
2022-11-04T19:14:41.580Z,91.56
2022-11-04T19:17:09.643Z,91.58
2022-11-04T19:19:37.527Z,92.05
2022-11-04T19:22:05.344Z,92.24
2022-11-04T19:24:34.641Z,92.14
2022-11-04T19:27:02.292Z,92.06
2022-11-04T19:29:30.580Z,91.88
2022-11-04T19:31:58.655Z,92.05
2022-11-04T19:34:26.636Z,91.87
2022-11-04T19:36:54.463Z,91.82
2022-11-04T19:39:22.526Z,91.38
2022-11-04T19:42:09.350Z,91.50
2022-11-04T19:44:37.153Z,91.47
2022-11-04T19:47:05.015Z,91.51
2022-11-04T19:49:32.791Z,91.48
2022-11-04T19:52:00.976Z,91.38
2022-11-04T19:54:29.406Z,91.15
2022-11-04T19:56:58.930Z,91.28
2022-11-04T19:59:26.812Z,91.20
2022-11-04T20:01:54.794Z,91.49
2022-11-04T20:04:22.688Z,91.17
2022-11-04T20:06:50.450Z,91.26
2022-11-04T20:09:18.496Z,91.28
2022-11-04T20:12:09.342Z,91.29
2022-11-04T20:14:38.494Z,91.02
2022-11-04T20:17:06.836Z,91.17
2022-11-04T20:19:35.237Z,91.23
2022-11-04T20:22:03.380Z,91.58
2022-11-04T20:24:31.281Z,91.25
2022-11-04T20:26:59.102Z,91.16
2022-11-04T20:29:26.941Z,91.07
2022-11-04T20:31:56.054Z,90.98
2022-11-04T20:34:26.539Z,91.27
2022-11-04T20:36:56.595Z,91.21
2022-11-04T20:39:24.400Z,91.13
2022-11-04T20:41:52.225Z,91.28
2022-11-04T20:44:19.982Z,91.21
2022-11-04T20:46:47.795Z,91.36
2022-11-04T20:49:16.949Z,91.29
2022-11-04T20:51:54.430Z,91.62
2022-11-04T20:54:23.095Z,91.38
2022-11-04T20:56:51.010Z,91.32
2022-11-04T20:59:18.811Z,90.72
2022-11-04T21:01:50.157Z,90.64
2022-11-04T21:04:21.417Z,90.33
2022-11-04T21:06:50.483Z,89.98
2022-11-04T21:09:20.502Z,90.14
2022-11-04T21:11:48.969Z,90.23
2022-11-04T21:14:19.265Z,89.72
2022-11-04T21:16:47.375Z,90.05
2022-11-04T21:19:15.979Z,90.14
2022-11-04T21:21:47.010Z,90.37
2022-11-04T21:24:16.785Z,90.80
2022-11-04T21:26:46.637Z,91.13
2022-11-04T21:29:19.322Z,91.02
2022-11-04T21:31:47.937Z,91.30
2022-11-04T21:34:16.066Z,90.83
2022-11-04T21:36:45.603Z,91.21
2022-11-04T21:39:13.382Z,91.13
2022-11-04T21:41:41.211Z,91.18
2022-11-04T21:44:13.309Z,91.16
2022-11-04T21:46:41.157Z,91.37
2022-11-04T21:49:10.043Z,91.72
2022-11-04T21:51:37.750Z,92.01
2022-11-04T21:54:08.446Z,92.32
2022-11-04T21:56:36.627Z,92.35
2022-11-04T21:59:06.559Z,92.37
2022-11-04T22:01:34.416Z,92.49
2022-11-04T22:04:03.252Z,92.61
2022-11-04T22:06:35.158Z,92.68
2022-11-04T22:09:04.873Z,93.18
2022-11-04T22:11:36.367Z,92.96
2022-11-04T22:14:06.265Z,93.19
2022-11-04T22:16:36.224Z,93.44
2022-11-04T22:19:06.234Z,93.45
2022-11-04T22:21:34.408Z,93.32
2022-11-04T22:24:02.688Z,93.32
2022-11-04T22:26:32.787Z,93.20
2022-11-04T22:29:01.884Z,93.50
2022-11-04T22:31:31.223Z,93.76
2022-11-04T22:33:59.583Z,93.62
2022-11-04T22:36:28.223Z,93.75
2022-11-04T22:38:56.940Z,93.57
2022-11-04T22:41:27.103Z,93.89
2022-11-04T22:43:54.859Z,93.83
2022-11-04T22:46:27.777Z,93.70
2022-11-04T22:48:55.626Z,93.81
2022-11-04T22:51:23.397Z,93.84
2022-11-04T22:53:56.601Z,93.64
2022-11-04T22:56:25.764Z,93.91
2022-11-04T22:58:54.253Z,94.03
2022-11-04T23:01:25.972Z,93.92
2022-11-04T23:03:54.229Z,93.69
2022-11-04T23:06:22.079Z,93.54
2022-11-04T23:08:52.154Z,93.23
2022-11-04T23:11:42.945Z,93.34
2022-11-04T23:14:30.478Z,93.51
2022-11-04T23:17:17.607Z,93.89
2022-11-04T23:19:45.423Z,93.90
2022-11-04T23:22:30.858Z,93.80
2022-11-04T23:25:09.464Z,93.58
2022-11-04T23:27:57.684Z,93.52
2022-11-04T23:30:26.745Z,93.56
2022-11-04T23:32:57.876Z,93.46
2022-11-04T23:35:45.148Z,93.64
2022-11-04T23:38:13.083Z,93.72
2022-11-04T23:40:41.072Z,93.94
2022-11-04T23:43:08.267Z,94.11
2022-11-04T23:45:53.754Z,94.26
2022-11-04T23:48:40.193Z,94.38
2022-11-04T23:51:25.614Z,94.71
2022-11-04T23:54:10.884Z,94.43
2022-11-04T23:56:56.376Z,94.21
2022-11-04T23:59:41.680Z,94.18
